createdAt,value
2022-10-05T00:00:28.554Z,7.67
2022-10-05T00:02:58.259Z,7.77
2022-10-05T00:05:32.188Z,7.70
2022-10-05T00:08:07.065Z,8.00
2022-10-05T00:10:35.348Z,8.03
2022-10-05T00:13:03.536Z,7.20
2022-10-05T00:15:31.895Z,7.80
2022-10-05T00:18:03.557Z,8.57
2022-10-05T00:20:31.890Z,7.90
2022-10-05T00:23:03.855Z,8.73
2022-10-05T00:25:32.335Z,7.20
2022-10-05T00:28:02.342Z,8.37
2022-10-05T00:30:34.930Z,8.03
2022-10-05T00:33:04.329Z,7.60
2022-10-05T00:35:32.724Z,8.17
2022-10-05T00:38:01.067Z,7.67
2022-10-05T00:40:42.168Z,7.63
2022-10-05T00:43:27.163Z,7.83
2022-10-05T00:46:01.649Z,8.37
2022-10-05T00:48:40.039Z,8.07
2022-10-05T00:51:17.883Z,6.80
2022-10-05T00:53:53.753Z,7.97
2022-10-05T00:56:36.313Z,8.50
2022-10-05T00:59:12.108Z,7.57
2022-10-05T01:01:45.340Z,9.10
2022-10-05T01:04:21.758Z,8.00
2022-10-05T01:07:00.591Z,8.07
2022-10-05T01:09:40.291Z,8.87
2022-10-05T01:12:16.767Z,8.50
2022-10-05T01:14:54.565Z,7.63
2022-10-05T01:17:27.477Z,8.00
2022-10-05T01:20:20.850Z,7.37
2022-10-05T01:23:24.084Z,7.87
2022-10-05T01:26:08.130Z,7.17
2022-10-05T01:28:42.294Z,7.90
2022-10-05T01:31:19.980Z,7.90
2022-10-05T01:33:56.895Z,8.20
2022-10-05T01:36:34.204Z,7.93
2022-10-05T01:39:13.426Z,6.97
2022-10-05T01:41:49.780Z,8.13
2022-10-05T01:44:23.788Z,8.27
2022-10-05T01:46:58.189Z,8.13
2022-10-05T01:49:37.051Z,7.63
2022-10-05T01:52:16.370Z,7.60
2022-10-05T01:54:58.885Z,7.33
2022-10-05T01:57:44.039Z,7.90
2022-10-05T02:00:15.674Z,7.40
2022-10-05T02:02:47.692Z,8.67
2022-10-05T02:05:20.935Z,7.90
2022-10-05T02:07:54.635Z,7.87
2022-10-05T02:10:26.921Z,8.57
2022-10-05T02:12:59.941Z,8.43
2022-10-05T02:15:34.618Z,8.40
2022-10-05T02:18:11.883Z,8.43
2022-10-05T02:20:43.414Z,7.87
2022-10-05T02:23:18.776Z,8.47
2022-10-05T02:25:49.424Z,8.23
2022-10-05T02:28:21.525Z,8.80
2022-10-05T02:30:55.824Z,8.57
2022-10-05T02:33:29.262Z,9.13
2022-10-05T02:36:02.555Z,9.03
2022-10-05T02:38:38.439Z,7.93
2022-10-05T02:41:14.396Z,7.97
2022-10-05T02:43:50.610Z,8.53
2022-10-05T02:46:29.892Z,7.97
2022-10-05T02:49:10.273Z,8.37
2022-10-05T02:51:47.039Z,9.07
2022-10-05T02:54:22.512Z,9.07
2022-10-05T02:56:57.636Z,9.10
2022-10-05T02:59:31.216Z,9.87
2022-10-05T03:02:07.572Z,8.20
2022-10-05T03:04:42.600Z,8.83
2022-10-05T03:07:17.408Z,9.47
2022-10-05T03:09:57.632Z,8.83
2022-10-05T03:12:48.708Z,8.77
2022-10-05T03:15:35.480Z,9.00
2022-10-05T03:18:13.662Z,9.57
2022-10-05T03:20:47.265Z,9.20
2022-10-05T03:23:26.005Z,8.23
2022-10-05T03:26:07.167Z,7.77
2022-10-05T03:28:42.097Z,8.73
2022-10-05T03:31:18.826Z,8.30
2022-10-05T03:33:52.218Z,8.83
2022-10-05T03:36:27.544Z,8.50
2022-10-05T03:39:02.589Z,7.83
2022-10-05T03:41:38.262Z,8.00
2022-10-05T03:44:18.384Z,8.30
2022-10-05T03:46:59.669Z,8.20
2022-10-05T03:49:40.259Z,8.37
2022-10-05T03:52:14.727Z,7.97
2022-10-05T03:54:47.963Z,8.03
2022-10-05T03:57:19.570Z,8.73
2022-10-05T03:59:57.373Z,8.40
2022-10-05T04:02:30.594Z,7.77
2022-10-05T04:05:06.275Z,8.17
2022-10-05T04:07:43.914Z,8.70
2022-10-05T04:10:18.257Z,8.23
2022-10-05T04:12:52.113Z,9.13
2022-10-05T04:15:28.003Z,8.50
2022-10-05T04:18:01.051Z,8.43
2022-10-05T04:20:36.190Z,8.47
2022-10-05T04:23:15.863Z,8.83
2022-10-05T04:25:47.313Z,8.80
2022-10-05T04:28:27.013Z,8.30
2022-10-05T04:30:57.588Z,8.60
2022-10-05T04:33:28.300Z,7.87
2022-10-05T04:36:12.199Z,7.80
2022-10-05T04:38:50.865Z,7.63
2022-10-05T04:41:34.483Z,8.43
2022-10-05T04:44:17.376Z,8.67
2022-10-05T04:47:08.039Z,8.63
2022-10-05T04:50:08.907Z,7.83
2022-10-05T04:52:45.393Z,7.83
2022-10-05T04:55:22.525Z,8.43
2022-10-05T04:57:56.750Z,7.70
2022-10-05T05:00:26.844Z,8.10
2022-10-05T05:03:33.298Z,8.60
2022-10-05T05:06:18.635Z,7.30
2022-10-05T05:09:05.833Z,7.97
2022-10-05T05:11:44.990Z,8.37
2022-10-05T05:14:34.487Z,7.77
2022-10-05T05:17:17.231Z,8.10
2022-10-05T05:19:54.969Z,8.17
2022-10-05T05:22:31.109Z,7.90
2022-10-05T05:25:26.115Z,7.93
2022-10-05T05:27:58.532Z,8.20
2022-10-05T05:30:36.785Z,8.97
2022-10-05T05:33:21.477Z,8.30
2022-10-05T05:36:11.747Z,8.87
2022-10-05T05:38:43.912Z,8.47
2022-10-05T05:41:16.540Z,8.10
2022-10-05T05:44:05.946Z,8.00
2022-10-05T05:47:02.223Z,8.40
2022-10-05T05:49:36.355Z,8.57
2022-10-05T05:52:14.548Z,8.57
2022-10-05T05:54:46.722Z,9.60
2022-10-05T05:57:21.083Z,9.37
2022-10-05T05:59:55.778Z,8.70
2022-10-05T06:02:30.340Z,7.80
2022-10-05T06:05:03.880Z,8.83
2022-10-05T06:07:32.995Z,9.47
2022-10-05T06:10:06.935Z,8.73
2022-10-05T06:12:41.343Z,9.57
2022-10-05T06:15:21.025Z,8.70
2022-10-05T06:17:53.292Z,8.97
2022-10-05T06:20:26.472Z,9.47
2022-10-05T06:22:56.975Z,9.60
2022-10-05T06:25:37.265Z,9.13
2022-10-05T06:28:11.282Z,8.90
2022-10-05T06:30:48.759Z,9.23
2022-10-05T06:33:30.529Z,9.70
2022-10-05T06:36:13.650Z,8.77
2022-10-05T06:39:03.570Z,9.27
2022-10-05T06:41:46.441Z,9.00
2022-10-05T06:44:18.260Z,9.37
2022-10-05T06:46:57.836Z,9.27
2022-10-05T06:49:31.410Z,9.37
2022-10-05T06:52:06.587Z,9.70
2022-10-05T06:54:46.865Z,9.53
2022-10-05T06:57:29.747Z,9.83
2022-10-05T07:00:02.168Z,10.23
2022-10-05T07:02:39.624Z,10.43
2022-10-05T07:05:33.569Z,9.47
2022-10-05T07:08:06.199Z,10.77
2022-10-05T07:10:41.610Z,10.80
2022-10-05T07:13:33.974Z,10.77
2022-10-05T07:16:10.405Z,9.90
2022-10-05T07:18:50.374Z,11.37
2022-10-05T07:21:27.653Z,9.40
2022-10-05T07:24:05.569Z,9.77
2022-10-05T07:26:38.435Z,11.00
2022-10-05T07:29:23.537Z,11.00
2022-10-05T07:32:02.352Z,10.00
2022-10-05T07:34:41.547Z,10.33
2022-10-05T07:37:31.727Z,10.00
2022-10-05T07:40:09.922Z,9.83
2022-10-05T07:42:59.941Z,9.93
2022-10-05T07:45:32.535Z,10.33
2022-10-05T07:48:09.333Z,10.63
2022-10-05T07:50:45.020Z,9.93
2022-10-05T07:53:19.542Z,9.83
2022-10-05T07:55:54.081Z,10.03
2022-10-05T07:58:28.991Z,10.03
2022-10-05T08:01:05.444Z,9.93
2022-10-05T08:03:46.449Z,10.33
2022-10-05T08:06:29.025Z,10.00
2022-10-05T08:09:01.903Z,9.85
2022-10-05T08:11:37.817Z,10.63
2022-10-05T08:14:16.656Z,10.43
2022-10-05T08:16:46.973Z,9.70
2022-10-05T08:19:21.355Z,10.63
2022-10-05T08:21:55.325Z,9.40
2022-10-05T08:24:40.071Z,9.00
2022-10-05T08:27:15.390Z,10.55
2022-10-05T08:29:53.071Z,10.17
2022-10-05T08:32:25.527Z,10.37
2022-10-05T08:35:00.729Z,10.27
2022-10-05T08:37:32.762Z,9.90
2022-10-05T08:40:27.581Z,10.03
2022-10-05T08:43:09.550Z,10.10
2022-10-05T08:46:13.883Z,10.73
2022-10-05T08:49:17.313Z,9.67
2022-10-05T08:52:16.857Z,9.23
2022-10-05T08:55:24.478Z,10.87
2022-10-05T08:58:15.403Z,9.85
2022-10-05T09:00:52.971Z,9.25
2022-10-05T09:03:34.670Z,9.10
2022-10-05T09:06:25.064Z,9.33
2022-10-05T09:09:10.765Z,8.93
2022-10-05T09:11:40.725Z,9.40
2022-10-05T09:14:27.884Z,9.57
2022-10-05T09:17:12.182Z,9.63
2022-10-05T09:20:07.455Z,10.90
2022-10-05T09:22:57.309Z,9.45
2022-10-05T09:25:39.289Z,8.52
2022-10-05T09:28:24.361Z,10.73
2022-10-05T09:31:05.604Z,9.77
2022-10-05T09:33:57.789Z,10.10
2022-10-05T09:37:02.989Z,9.25
2022-10-05T09:40:01.190Z,10.43
2022-10-05T09:42:56.669Z,9.77
2022-10-05T09:45:48.867Z,11.00
2022-10-05T09:48:56.077Z,9.93
2022-10-05T09:52:06.181Z,10.40
2022-10-05T09:55:05.512Z,9.63
2022-10-05T09:58:17.952Z,10.40
2022-10-05T10:01:09.033Z,10.30
2022-10-05T10:04:10.268Z,11.05
2022-10-05T10:07:10.998Z,10.18
2022-10-05T10:09:52.690Z,10.35
2022-10-05T10:12:33.728Z,10.63
2022-10-05T10:15:35.192Z,10.98
2022-10-05T10:18:28.802Z,10.02
2022-10-05T10:21:07.255Z,9.65
2022-10-05T10:23:51.513Z,10.55
2022-10-05T10:27:02.239Z,11.23
2022-10-05T10:29:59.776Z,9.52
2022-10-05T10:33:01.308Z,9.88
2022-10-05T10:35:35.778Z,9.85
2022-10-05T10:38:26.489Z,11.07
2022-10-05T10:41:10.685Z,9.68
2022-10-05T10:43:57.603Z,10.73
2022-10-05T10:46:40.514Z,10.23
2022-10-05T10:49:25.257Z,10.32
2022-10-05T10:52:25.912Z,9.55
2022-10-05T10:55:22.301Z,10.75
2022-10-05T10:58:33.448Z,8.52
2022-10-05T11:01:23.244Z,9.88
2022-10-05T11:04:08.977Z,10.05
2022-10-05T11:07:14.851Z,9.48
2022-10-05T11:10:11.058Z,8.60
2022-10-05T11:13:27.813Z,8.50
2022-10-05T11:16:20.074Z,8.88
2022-10-05T11:19:21.710Z,9.27
2022-10-05T11:22:12.461Z,8.38
2022-10-05T11:25:20.896Z,7.88
2022-10-05T11:28:01.140Z,9.38
2022-10-05T11:31:03.818Z,8.98
2022-10-05T11:34:03.244Z,8.38
2022-10-05T11:37:12.030Z,8.40
2022-10-05T11:39:46.133Z,8.43
2022-10-05T11:42:50.956Z,9.57
2022-10-05T11:45:32.540Z,9.13
2022-10-05T11:48:46.571Z,8.95
2022-10-05T11:51:54.509Z,8.98
2022-10-05T11:55:12.060Z,9.73
2022-10-05T11:57:49.102Z,9.77
2022-10-05T12:00:20.915Z,9.48
2022-10-05T12:03:31.061Z,9.55
2022-10-05T12:06:19.603Z,9.55
2022-10-05T12:08:57.260Z,10.65
2022-10-05T12:11:41.989Z,10.52
2022-10-05T12:14:17.478Z,10.98
2022-10-05T12:16:51.051Z,10.32
2022-10-05T12:19:27.303Z,11.32
2022-10-05T12:22:03.958Z,12.00
2022-10-05T12:25:01.824Z,11.98
2022-10-05T12:27:34.831Z,10.35
2022-10-05T12:30:07.495Z,12.73
2022-10-05T12:32:40.800Z,11.85
2022-10-05T12:35:36.263Z,10.32
2022-10-05T12:38:17.890Z,9.35
2022-10-05T12:40:51.592Z,10.88
2022-10-05T12:43:28.022Z,10.52
2022-10-05T12:46:05.346Z,12.38
2022-10-05T12:48:53.102Z,11.55
2022-10-05T12:51:26.733Z,10.10
2022-10-05T12:54:02.182Z,11.57
2022-10-05T12:56:43.122Z,12.05
2022-10-05T12:59:23.741Z,12.07
2022-10-05T13:01:58.192Z,12.60
2022-10-05T13:04:39.501Z,10.82
2022-10-05T13:07:42.020Z,11.40
2022-10-05T13:10:28.097Z,9.93
2022-10-05T13:13:11.611Z,10.15
2022-10-05T13:15:49.859Z,11.23
2022-10-05T13:18:28.970Z,11.90
2022-10-05T13:21:05.110Z,12.02
2022-10-05T13:23:44.127Z,12.73
2022-10-05T13:26:16.682Z,11.50
2022-10-05T13:28:53.884Z,13.00
2022-10-05T13:31:26.063Z,11.88
2022-10-05T13:34:07.096Z,12.98
2022-10-05T13:36:46.986Z,13.00
2022-10-05T13:39:30.945Z,13.05
2022-10-05T13:42:07.032Z,12.40
2022-10-05T13:44:44.538Z,15.65
2022-10-05T13:47:20.948Z,13.63
2022-10-05T13:49:55.225Z,11.65
2022-10-05T13:52:34.139Z,12.45
2022-10-05T13:55:15.011Z,12.88
2022-10-05T13:57:58.854Z,12.20
2022-10-05T14:00:27.840Z,13.57
2022-10-05T14:02:57.514Z,12.20
2022-10-05T14:05:27.564Z,13.07
2022-10-05T14:07:58.442Z,13.00
2022-10-05T14:10:38.739Z,14.88
2022-10-05T14:13:26.650Z,10.45
2022-10-05T14:16:07.478Z,11.95
2022-10-05T14:18:38.488Z,12.77
2022-10-05T14:21:19.789Z,12.55
2022-10-05T14:23:47.895Z,10.18
2022-10-05T14:26:38.476Z,12.02
2022-10-05T14:29:19.757Z,11.80
2022-10-05T14:31:52.302Z,12.73
2022-10-05T14:34:29.428Z,13.23
2022-10-05T14:37:00.132Z,14.52
2022-10-05T14:39:33.856Z,12.07
2022-10-05T14:42:14.669Z,12.73
2022-10-05T14:44:44.526Z,13.30
2022-10-05T14:47:23.882Z,13.88
2022-10-05T14:50:10.843Z,13.27
2022-10-05T14:52:41.233Z,11.40
2022-10-05T14:55:24.902Z,13.63
2022-10-05T14:58:05.608Z,12.35
2022-10-05T15:00:46.775Z,13.43
2022-10-05T15:03:29.312Z,12.15
2022-10-05T15:06:01.560Z,10.98
2022-10-05T15:08:42.089Z,12.05
2022-10-05T15:11:18.208Z,12.98
2022-10-05T15:13:48.158Z,13.02
2022-10-05T15:16:20.625Z,11.75
2022-10-05T15:18:57.736Z,11.07
2022-10-05T15:21:42.257Z,12.20
2022-10-05T15:24:17.150Z,11.85
2022-10-05T15:26:51.523Z,11.05
2022-10-05T15:29:42.404Z,11.00
2022-10-05T15:32:26.992Z,10.45
2022-10-05T15:35:13.866Z,10.30
2022-10-05T15:37:45.384Z,10.25
2022-10-05T15:40:23.192Z,11.40
2022-10-05T15:42:53.324Z,10.20
2022-10-05T15:45:30.028Z,10.10
2022-10-05T15:48:04.181Z,9.52
2022-10-05T15:50:39.102Z,10.68
2022-10-05T15:53:18.085Z,10.55
2022-10-05T15:55:53.194Z,9.23
2022-10-05T15:58:43.356Z,9.32
2022-10-05T16:01:14.160Z,9.18
2022-10-05T16:03:50.153Z,8.00
2022-10-05T16:06:56.535Z,8.75
2022-10-05T16:09:50.071Z,9.63
2022-10-05T16:12:30.576Z,8.50
2022-10-05T16:15:13.591Z,8.43
2022-10-05T16:17:56.337Z,8.93
2022-10-05T16:20:36.800Z,7.93
2022-10-05T16:23:10.948Z,9.75
2022-10-05T16:25:51.591Z,7.45
2022-10-05T16:28:29.831Z,8.35
2022-10-05T16:31:03.708Z,8.90
2022-10-05T16:33:46.716Z,9.68
2022-10-05T16:36:22.860Z,10.10
2022-10-05T16:38:59.101Z,9.32
2022-10-05T16:41:37.309Z,8.82
2022-10-05T16:44:14.876Z,8.60
2022-10-05T16:46:48.581Z,9.55
2022-10-05T16:49:26.929Z,8.32
2022-10-05T16:52:00.286Z,8.90
2022-10-05T16:54:32.641Z,9.35
2022-10-05T16:57:07.468Z,8.88
2022-10-05T17:00:03.612Z,8.00
2022-10-05T17:02:46.904Z,8.57
2022-10-05T17:05:38.584Z,9.40
2022-10-05T17:08:30.323Z,7.88
2022-10-05T17:11:08.037Z,9.10
2022-10-05T17:13:53.504Z,9.32
2022-10-05T17:16:29.609Z,9.50
2022-10-05T17:19:21.829Z,9.32
2022-10-05T17:22:00.694Z,8.68
2022-10-05T17:24:49.209Z,9.48
2022-10-05T17:27:25.879Z,8.90
2022-10-05T17:29:55.584Z,9.50
2022-10-05T17:32:56.456Z,9.85
2022-10-05T17:36:12.916Z,9.43
2022-10-05T17:38:51.313Z,10.25
2022-10-05T17:41:23.350Z,9.60
2022-10-05T17:44:19.289Z,9.25
2022-10-05T17:46:49.395Z,10.25
2022-10-05T17:49:39.828Z,10.35
2022-10-05T17:52:41.192Z,11.07
2022-10-05T17:55:47.392Z,9.02
2022-10-05T17:59:01.357Z,9.80
2022-10-05T18:01:33.895Z,8.85
2022-10-05T18:04:42.280Z,10.50
2022-10-05T18:07:20.841Z,9.38
2022-10-05T18:09:57.169Z,9.93
2022-10-05T18:12:42.472Z,11.52
2022-10-05T18:15:46.148Z,10.48
2022-10-05T18:18:55.979Z,9.55
2022-10-05T18:21:40.027Z,9.73
2022-10-05T18:25:03.858Z,9.88
2022-10-05T18:27:58.352Z,9.40
2022-10-05T18:30:27.638Z,8.93
2022-10-05T18:33:35.340Z,11.10
2022-10-05T18:36:20.650Z,10.73
2022-10-05T18:38:57.192Z,10.75
2022-10-05T18:41:35.084Z,10.60
2022-10-05T18:44:20.177Z,10.52
2022-10-05T18:46:55.378Z,10.68
2022-10-05T18:49:39.442Z,10.52
2022-10-05T18:52:15.071Z,11.45
2022-10-05T18:54:57.051Z,10.63
2022-10-05T18:57:38.996Z,11.43
2022-10-05T19:00:14.862Z,10.85
2022-10-05T19:02:47.715Z,11.00
2022-10-05T19:05:46.394Z,11.20
2022-10-05T19:08:22.165Z,10.57
2022-10-05T19:10:56.080Z,10.48
2022-10-05T19:13:38.473Z,11.15
2022-10-05T19:16:22.453Z,11.27
2022-10-05T19:19:28.400Z,12.30
2022-10-05T19:22:04.307Z,9.65
2022-10-05T19:24:50.399Z,9.50
2022-10-05T19:27:27.434Z,9.35
2022-10-05T19:30:15.548Z,10.55
2022-10-05T19:33:06.771Z,10.48
2022-10-05T19:35:46.037Z,8.73
2022-10-05T19:38:22.863Z,9.10
2022-10-05T19:40:57.956Z,9.73
2022-10-05T19:43:52.893Z,9.88
2022-10-05T19:46:32.935Z,9.38
2022-10-05T19:49:01.325Z,9.80
2022-10-05T19:51:32.031Z,10.48
2022-10-05T19:54:02.988Z,10.75
2022-10-05T19:56:34.934Z,9.18
2022-10-05T19:59:14.299Z,10.38
2022-10-05T20:01:50.580Z,9.63
2022-10-05T20:04:34.156Z,10.07
2022-10-05T20:07:03.146Z,9.90
2022-10-05T20:09:49.451Z,11.00
2022-10-05T20:12:17.558Z,11.15
2022-10-05T20:15:00.842Z,9.80
2022-10-05T20:17:46.800Z,9.88
2022-10-05T20:20:31.804Z,9.27
2022-10-05T20:23:24.904Z,10.45
2022-10-05T20:26:10.935Z,9.88
2022-10-05T20:28:39.393Z,9.13
2022-10-05T20:31:09.007Z,9.90
2022-10-05T20:33:40.236Z,9.27
2022-10-05T20:36:08.724Z,8.70
2022-10-05T20:38:40.832Z,10.07
2022-10-05T20:41:09.808Z,9.77
2022-10-05T20:43:39.300Z,9.18
2022-10-05T20:46:08.992Z,9.57
2022-10-05T20:48:37.181Z,9.40
2022-10-05T20:51:05.593Z,10.75
2022-10-05T20:53:34.028Z,7.85
2022-10-05T20:56:04.397Z,9.77
2022-10-05T20:58:32.726Z,10.05
2022-10-05T21:01:19.941Z,9.35
2022-10-05T21:03:50.585Z,10.75
2022-10-05T21:06:19.033Z,9.82
2022-10-05T21:08:47.517Z,10.38
2022-10-05T21:11:15.839Z,9.73
2022-10-05T21:13:45.790Z,9.07
2022-10-05T21:16:15.512Z,9.13
2022-10-05T21:18:46.983Z,10.10
2022-10-05T21:21:17.262Z,9.98
2022-10-05T21:23:45.818Z,10.15
2022-10-05T21:26:14.275Z,9.75
2022-10-05T21:28:42.999Z,9.05
2022-10-05T21:31:11.613Z,8.57
2022-10-05T21:33:39.647Z,8.93
2022-10-05T21:36:07.713Z,11.50
2022-10-05T21:38:37.536Z,9.65
2022-10-05T21:41:05.745Z,9.60
2022-10-05T21:43:33.861Z,9.07
2022-10-05T21:46:02.127Z,10.65
2022-10-05T21:48:31.901Z,10.35
2022-10-05T21:51:01.088Z,9.18
2022-10-05T21:53:32.052Z,9.82
2022-10-05T21:56:03.736Z,9.23
2022-10-05T21:58:32.200Z,11.40
2022-10-05T22:01:00.359Z,9.18
2022-10-05T22:03:28.818Z,9.38
2022-10-05T22:05:56.954Z,9.35
2022-10-05T22:08:28.079Z,9.90
2022-10-05T22:10:56.907Z,10.80
2022-10-05T22:13:27.825Z,9.57
2022-10-05T22:15:57.293Z,9.57
2022-10-05T22:18:26.969Z,10.27
2022-10-05T22:20:55.264Z,10.55
2022-10-05T22:23:23.714Z,9.93
2022-10-05T22:25:52.134Z,10.73
2022-10-05T22:28:20.676Z,12.27
2022-10-05T22:30:50.156Z,10.70
2022-10-05T22:33:18.297Z,11.70
2022-10-05T22:35:46.981Z,9.88
2022-10-05T22:38:15.293Z,10.38
2022-10-05T22:40:43.350Z,9.73
2022-10-05T22:43:11.721Z,11.43
2022-10-05T22:45:39.769Z,10.55
2022-10-05T22:48:09.278Z,11.95
2022-10-05T22:50:37.607Z,12.18
2022-10-05T22:53:06.071Z,10.40
2022-10-05T22:55:34.453Z,12.43
2022-10-05T22:58:02.975Z,11.73
2022-10-05T23:00:56.308Z,10.38
2022-10-05T23:03:20.889Z,9.65
2022-10-05T23:05:48.979Z,9.30
2022-10-05T23:08:17.137Z,10.00
2022-10-05T23:10:45.908Z,10.10
2022-10-05T23:13:14.959Z,9.95
2022-10-05T23:15:43.997Z,10.13
2022-10-05T23:18:13.130Z,9.48
2022-10-05T23:20:42.577Z,10.00
2022-10-05T23:23:10.903Z,10.68
2022-10-05T23:25:39.342Z,9.93
2022-10-05T23:28:07.677Z,10.38
2022-10-05T23:30:36.051Z,9.68
2022-10-05T23:33:04.120Z,9.85
2022-10-05T23:35:32.190Z,9.38
2022-10-05T23:38:01.641Z,10.35
2022-10-05T23:40:29.935Z,9.95
2022-10-05T23:42:58.453Z,9.90
2022-10-05T23:45:26.847Z,10.25
2022-10-05T23:47:55.200Z,10.60
2022-10-05T23:50:25.104Z,9.45
2022-10-05T23:52:53.258Z,11.20
2022-10-05T23:55:22.671Z,10.40
2022-10-05T23:57:50.684Z,9.67
